Time;durP1;ratioP1;P1;durP2;ratioP2;P2;SDS_P1;SDS_P2;PMS_P1;PMS_P2;Temp;Humidity;BMP_temperature;BMP_pressure;BME280_temperature;BME280_humidity;BME280_pressure;Samples;Min_cycle;Max_cycle;Signal;HPM_P1;HPM_P2
2021/01/16 00:01:11;;;;;;;12.03;4.33;;;;;;;-3.42;58.43;100557.52;121741;1141;104455;-76
2021/01/16 00:03:40;;;;;;;10.70;4.30;;;;;;;-3.37;58.69;100561.41;121778;1141;104364;-77
2021/01/16 00:06:10;;;;;;;12.07;4.00;;;;;;;-3.35;57.91;100559.91;121663;1141;104364;-75
2021/01/16 00:08:42;;;;;;;8.50;3.90;;;;;;;-3.34;57.54;100564.25;121736;1141;104483;-75
2021/01/16 00:11:11;;;;;;;8.90;3.70;;;;;;;-3.34;57.55;100565.92;121751;1141;104335;-75
2021/01/16 00:13:40;;;;;;;8.10;3.90;;;;;;;-3.35;58.02;100565.03;121718;1141;104521;-75
2021/01/16 00:16:09;;;;;;;11.43;4.10;;;;;;;-3.32;58.38;100564.39;121749;1141;104433;-76
2021/01/16 00:18:38;;;;;;;10.83;4.03;;;;;;;-3.33;57.58;100560.05;121747;1141;104353;-75
2021/01/16 00:21:07;;;;;;;9.00;3.63;;;;;;;-3.34;58.05;100565.92;121414;1141;104399;-76
2021/01/16 00:23:36;;;;;;;9.23;3.90;;;;;;;-3.37;58.08;100561.41;121759;1141;104342;-74
2021/01/16 00:26:06;;;;;;;8.63;3.33;;;;;;;-3.36;57.92;100560.66;121663;1141;104424;-74
2021/01/16 00:28:35;;;;;;;9.10;3.77;;;;;;;-3.37;58.02;100561.41;121704;1141;104338;-75
2021/01/16 00:31:05;;;;;;;8.10;3.80;;;;;;;-3.37;58.06;100563.97;121729;1141;104348;-76
2021/01/16 00:33:38;;;;;;;9.47;3.87;;;;;;;-3.35;57.57;100558.98;121737;1141;104373;-75
2021/01/16 00:36:08;;;;;;;9.77;4.00;;;;;;;-3.35;57.49;100566.67;121724;1141;104361;-75
2021/01/16 00:38:42;;;;;;;8.37;3.67;;;;;;;-3.34;58.24;100569.38;121680;1141;104342;-76
2021/01/16 00:41:16;;;;;;;10.03;4.23;;;;;;;-3.35;57.60;100556.41;121709;1141;104342;-74
2021/01/16 00:43:45;;;;;;;10.00;4.10;;;;;;;-3.38;58.18;100558.70;121726;1141;104339;-74
2021/01/16 00:46:14;;;;;;;12.60;4.80;;;;;;;-3.36;57.44;100563.22;121658;1141;104439;-74
2021/01/16 00:48:44;;;;;;;10.30;4.43;;;;;;;-3.36;58.34;100559.77;121658;1141;104531;-74
2021/01/16 00:51:13;;;;;;;13.43;4.83;;;;;;;-3.38;57.80;100554.48;121726;1140;104342;-74
2021/01/16 00:53:44;;;;;;;13.67;4.60;;;;;;;-3.39;57.80;100551.78;121735;1141;104380;-74
2021/01/16 00:56:14;;;;;;;12.03;4.73;;;;;;;-3.39;57.68;100555.23;121736;1140;104724;-74
2021/01/16 00:58:52;;;;;;;15.40;5.60;;;;;;;-3.40;57.88;100550.86;121680;1141;104407;-74
2021/01/16 01:01:39;;;;;;;12.03;4.40;;;;;;;-3.43;57.38;100550.58;121670;1141;104351;-74
2021/01/16 01:04:10;;;;;;;13.57;4.83;;;;;;;-3.45;58.05;100547.88;121707;1140;104342;-75
2021/01/16 01:06:39;;;;;;;12.40;4.73;;;;;;;-3.40;58.23;100539.70;121524;1141;104460;-74
2021/01/16 01:09:08;;;;;;;12.63;4.77;;;;;;;-3.37;58.65;100545.12;121627;1141;104364;-74
2021/01/16 01:11:37;;;;;;;11.17;4.90;;;;;;;-3.35;57.65;100534.24;121648;1141;104442;-75
2021/01/16 01:14:06;;;;;;;10.23;4.47;;;;;;;-3.35;58.11;100536.81;121672;1141;104361;-74
2021/01/16 01:16:35;;;;;;;13.57;4.80;;;;;;;-3.36;58.64;100527.30;121650;1140;104344;-75
2021/01/16 01:19:04;;;;;;;12.10;4.97;;;;;;;-3.34;58.39;100528.33;121615;1141;104364;-75
2021/01/16 01:21:33;;;;;;;12.80;4.97;;;;;;;-3.33;57.67;100530.14;121630;1140;104839;-75
2021/01/16 01:24:06;;;;;;;11.47;4.50;;;;;;;-3.31;57.51;100526.04;121547;1141;104494;-72
2021/01/16 01:26:38;;;;;;;12.47;4.63;;;;;;;-3.33;57.82;100525.01;121609;1141;104362;-75
2021/01/16 01:29:08;;;;;;;10.27;4.70;;;;;;;-3.32;57.58;100528.47;121669;1141;104326;-75
2021/01/16 01:31:38;;;;;;;18.77;5.90;;;;;;;-3.33;58.07;100532.70;121593;1141;104338;-75
2021/01/16 01:34:07;;;;;;;11.13;4.83;;;;;;;-3.32;58.18;100534.52;121649;1141;104800;-75
2021/01/16 01:36:39;;;;;;;12.57;4.60;;;;;;;-3.33;57.49;100537.84;121624;1141;104339;-75
2021/01/16 01:39:08;;;;;;;11.87;4.83;;;;;;;-3.34;57.42;100524.87;121596;1141;104563;-75
2021/01/16 01:41:39;;;;;;;13.17;4.67;;;;;;;-3.36;57.33;100518.70;121630;1141;104370;-77
2021/01/16 01:44:09;;;;;;;10.27;4.63;;;;;;;-3.36;57.59;100513.58;121718;1141;104458;-75
2021/01/16 01:46:39;;;;;;;11.30;4.83;;;;;;;-3.39;58.26;100509.05;121666;1141;104495;-75
2021/01/16 01:49:08;;;;;;;14.07;5.20;;;;;;;-3.41;57.77;100515.72;121641;1141;104445;-75
2021/01/16 01:51:38;;;;;;;12.27;4.83;;;;;;;-3.41;58.34;100522.49;121667;1141;104340;-75
2021/01/16 01:54:07;;;;;;;12.20;4.67;;;;;;;-3.39;57.70;100516.75;121685;1140;104354;-76
2021/01/16 01:56:38;;;;;;;14.87;5.20;;;;;;;-3.41;57.92;100527.63;121687;1141;104436;-75
2021/01/16 01:59:08;;;;;;;13.17;4.67;;;;;;;-3.38;58.32;100527.91;121724;1141;104349;-72
2021/01/16 02:01:44;;;;;;;12.47;4.83;;;;;;;-3.37;57.98;100527.16;121677;1141;104342;-76
2021/01/16 02:04:15;;;;;;;16.60;5.73;;;;;;;-3.34;57.90;100530.00;121539;1141;104358;-75
2021/01/16 02:06:44;;;;;;;13.80;4.63;;;;;;;-3.32;58.09;100525.90;121706;1141;104463;-75
2021/01/16 02:09:13;;;;;;;13.13;4.73;;;;;;;-3.31;57.31;100520.91;121664;1141;104518;-76
2021/01/16 02:11:42;;;;;;;17.20;5.40;;;;;;;-3.30;58.04;100521.83;121551;1141;104458;-76
2021/01/16 02:14:11;;;;;;;16.43;5.17;;;;;;;-3.32;57.32;100521.69;121462;1140;104435;-77
2021/01/16 02:16:44;;;;;;;12.47;4.93;;;;;;;-3.34;57.43;100517.17;121525;1141;104671;-76
2021/01/16 02:19:22;;;;;;;15.28;5.25;;;;;;;-3.35;57.85;100523.05;121509;1141;104346;-77
2021/01/16 02:21:51;;;;;;;14.10;5.40;;;;;;;-3.39;58.26;100514.19;121571;1141;104433;-77
2021/01/16 02:24:23;;;;;;;16.00;4.87;;;;;;;-3.39;58.28;100513.30;121566;1141;104342;-76
2021/01/16 02:27:04;;;;;;;13.00;4.70;;;;;;;-3.39;57.62;100506.48;121734;1141;104449;-76
2021/01/16 02:29:33;;;;;;;27.80;7.80;;;;;;;-3.38;57.38;100508.30;121723;1141;104361;-74
2021/01/16 02:32:06;;;;;;;14.67;4.90;;;;;;;-3.39;58.40;100514.19;121571;1141;104431;-75
2021/01/16 02:34:37;;;;;;;14.07;5.20;;;;;;;-3.42;57.45;100500.19;121791;1140;104479;-75
2021/01/16 02:37:24;;;;;;;13.63;4.80;;;;;;;-3.47;58.24;100504.90;121704;1141;104339;-75
2021/01/16 02:40:03;;;;;;;17.53;5.23;;;;;;;-3.47;58.41;100500.66;121775;1141;104436;-76
2021/01/16 02:42:44;;;;;;;14.07;4.87;;;;;;;-3.50;57.76;100502.05;121676;1140;104377;-75
2021/01/16 02:45:18;;;;;;;11.87;4.33;;;;;;;-3.48;57.21;100493.71;121672;1140;104351;-76
2021/01/16 02:48:13;;;;;;;13.90;5.42;;;;;;;-3.46;58.06;100493.85;121612;1141;104493;-76
2021/01/16 02:50:45;;;;;;;11.83;4.37;;;;;;;-3.45;57.73;100503.36;121636;1141;104345;-77
2021/01/16 02:53:15;;;;;;;12.90;5.00;;;;;;;-3.43;58.10;100491.56;121664;1141;104361;-75
2021/01/16 02:55:44;;;;;;;12.20;4.70;;;;;;;-3.45;58.25;100478.59;121683;1141;104339;-75
2021/01/16 02:58:13;;;;;;;12.80;4.90;;;;;;;-3.42;57.90;100484.80;121712;1141;104359;-75
2021/01/16 03:00:43;;;;;;;13.20;4.65;;;;;;;-3.43;57.88;100478.73;121617;1141;104338;-77
2021/01/16 03:03:13;;;;;;;12.90;4.90;;;;;;;-3.46;57.63;100476.81;121659;1140;104339;-75
2021/01/16 03:05:42;;;;;;;10.17;4.40;;;;;;;-3.45;57.98;100475.14;121717;1140;104460;-75
2021/01/16 03:08:12;;;;;;;12.57;4.73;;;;;;;-3.43;58.49;100481.30;121724;1141;104344;-75
2021/01/16 03:10:42;;;;;;;10.25;4.55;;;;;;;-3.40;57.51;100472.99;121690;1141;104342;-75
2021/01/16 03:13:11;;;;;;;14.50;5.50;;;;;;;-3.42;57.98;100469.40;121720;1141;104340;-75
2021/01/16 03:15:42;;;;;;;16.87;5.03;;;;;;;-3.43;57.77;100478.73;121668;1141;104466;-75
2021/01/16 03:18:17;;;;;;;14.57;5.37;;;;;;;-3.40;58.21;100485.82;121707;1140;104493;-74
2021/01/16 03:20:47;;;;;;;12.20;4.40;;;;;;;-3.39;57.68;100480.83;121685;1141;104307;-74
2021/01/16 03:23:16;;;;;;;12.47;4.90;;;;;;;-3.39;58.06;100480.83;121709;1140;104364;-74
2021/01/16 03:25:45;;;;;;;12.30;4.63;;;;;;;-3.39;57.38;100473.13;121738;1141;104340;-76
2021/01/16 03:28:14;;;;;;;11.83;4.23;;;;;;;-3.39;57.21;100477.37;121726;1140;104489;-76
2021/01/16 03:30:43;;;;;;;9.63;4.40;;;;;;;-3.40;57.27;100479.02;121674;1141;104350;-74
2021/01/16 03:33:12;;;;;;;11.63;4.43;;;;;;;-3.45;57.28;100483.73;121693;1140;104339;-74
2021/01/16 03:35:41;;;;;;;14.70;4.90;;;;;;;-3.45;57.86;100487.97;121673;1141;104786;-74
2021/01/16 03:38:10;;;;;;;11.57;4.43;;;;;;;-3.48;57.85;100487.69;121661;1140;104346;-75
2021/01/16 03:40:39;;;;;;;11.37;4.50;;;;;;;-3.55;58.03;100487.87;121638;1141;104359;-74
2021/01/16 03:43:08;;;;;;;11.93;5.13;;;;;;;-3.59;57.81;100483.26;121692;1141;104399;-74
2021/01/16 03:45:37;;;;;;;11.47;4.67;;;;;;;-3.60;57.23;100487.46;121711;1141;104454;-76
2021/01/16 03:48:07;;;;;;;13.03;4.87;;;;;;;-3.59;58.15;100493.52;121639;1140;104364;-75
2021/01/16 03:50:36;;;;;;;12.60;4.57;;;;;;;-3.57;58.02;100486.85;121736;1141;104342;-75
2021/01/16 03:53:05;;;;;;;13.27;4.97;;;;;;;-3.53;57.91;100484.70;121709;1140;104348;-75
2021/01/16 03:55:34;;;;;;;11.97;4.73;;;;;;;-3.52;58.09;100483.03;121681;1140;104435;-75
2021/01/16 03:58:04;;;;;;;11.37;4.53;;;;;;;-3.54;58.08;100482.89;121634;1141;104365;-75
2021/01/16 04:00:34;;;;;;;11.00;4.60;;;;;;;-3.52;58.12;100488.16;121726;1140;104451;-75
2021/01/16 04:03:03;;;;;;;14.70;4.67;;;;;;;-3.50;57.07;100491.80;121751;1141;104351;-76
2021/01/16 04:05:32;;;;;;;11.35;4.50;;;;;;;-3.48;57.10;100486.02;121711;1140;104366;-75
2021/01/16 04:08:01;;;;;;;17.10;4.70;;;;;;;-3.50;57.15;100491.80;121575;1140;104552;-75
2021/01/16 04:10:30;;;;;;;11.40;4.80;;;;;;;-3.49;57.12;100488.44;121696;1141;104462;-75
2021/01/16 04:12:59;;;;;;;14.20;5.47;;;;;;;-3.48;57.17;100493.71;121622;1141;104341;-74
2021/01/16 04:15:28;;;;;;;14.30;5.57;;;;;;;-3.46;57.83;100493.85;121733;1141;104343;-76
2021/01/16 04:17:57;;;;;;;19.03;6.20;;;;;;;-3.44;57.50;100490.67;121708;1141;104566;-75
2021/01/16 04:20:26;;;;;;;12.83;5.00;;;;;;;-3.42;58.05;100492.48;121661;1141;104382;-74
2021/01/16 04:22:55;;;;;;;16.93;5.20;;;;;;;-3.41;57.11;100492.62;121715;1141;104348;-75
2021/01/16 04:25:26;;;;;;;15.40;5.40;;;;;;;-3.41;58.20;100500.33;121703;1141;104345;-74
2021/01/16 04:27:55;;;;;;;14.03;5.07;;;;;;;-3.39;57.43;100496.23;121711;1141;104459;-74
2021/01/16 04:30:26;;;;;;;14.43;5.20;;;;;;;-3.40;57.81;100501.22;121730;1140;104684;-74
2021/01/16 04:32:55;;;;;;;13.37;5.20;;;;;;;-3.42;57.71;100501.08;121653;1141;104401;-75
2021/01/16 04:35:24;;;;;;;14.50;5.37;;;;;;;-3.44;57.19;100505.18;121586;1141;104342;-75
2021/01/16 04:37:53;;;;;;;14.20;5.33;;;;;;;-3.41;57.70;100501.97;121733;1141;104335;-74
2021/01/16 04:40:22;;;;;;;11.67;4.93;;;;;;;-3.42;57.03;100500.19;121626;1140;104336;-75
2021/01/16 04:42:53;;;;;;;15.10;5.70;;;;;;;-3.48;57.64;100501.41;121641;1140;104656;-75
2021/01/16 04:45:22;;;;;;;13.10;5.13;;;;;;;-3.51;57.16;100503.69;121704;1141;104454;-74
2021/01/16 04:47:56;;;;;;;18.43;6.40;;;;;;;-3.48;57.43;100495.39;121711;1141;104336;-75
2021/01/16 04:50:29;;;;;;;12.82;4.60;;;;;;;-3.56;57.73;100492.13;121742;1141;104455;-75
2021/01/16 04:53:03;;;;;;;19.07;5.63;;;;;;;-3.64;57.51;100493.98;121725;1141;104349;-76
2021/01/16 04:55:34;;;;;;;12.87;5.00;;;;;;;-3.69;57.80;100497.80;121714;1141;104838;-75
2021/01/16 04:58:07;;;;;;;16.57;5.37;;;;;;;-3.75;57.69;100494.67;121644;1141;104464;-76
2021/01/16 05:00:38;;;;;;;13.70;4.90;;;;;;;-3.78;57.16;100498.63;122929;1140;101766;-73
2021/01/16 05:03:10;;;;;;;13.70;4.63;;;;;;;-3.78;57.21;100507.20;121709;1141;104436;-75
2021/01/16 05:05:41;;;;;;;16.20;5.87;;;;;;;-3.82;57.52;100498.34;121721;1140;104410;-76
2021/01/16 05:08:11;;;;;;;17.90;6.03;;;;;;;-3.84;57.67;100492.14;121677;1140;104339;-76
2021/01/16 05:10:43;;;;;;;15.73;5.53;;;;;;;-3.85;57.21;100502.27;121654;1141;104452;-74
2021/01/16 05:13:13;;;;;;;15.90;5.20;;;;;;;-3.91;57.44;100501.69;121646;1141;104409;-76
2021/01/16 05:15:44;;;;;;;18.00;6.50;;;;;;;-3.97;57.85;100497.81;121715;1141;104830;-74
2021/01/16 05:18:15;;;;;;;19.00;5.77;;;;;;;-4.00;56.90;100502.65;121739;1141;104345;-74
2021/01/16 05:20:46;;;;;;;13.13;4.60;;;;;;;-4.00;57.68;100509.45;121688;1140;104358;-75
2021/01/16 05:23:15;;;;;;;15.93;5.13;;;;;;;-4.00;57.50;100506.89;121688;1141;104676;-74
2021/01/16 05:25:47;;;;;;;12.87;4.83;;;;;;;-4.02;57.12;100506.74;121631;1141;104463;-74
2021/01/16 05:28:19;;;;;;;18.07;6.40;;;;;;;-4.08;57.39;100508.73;121678;1141;104335;-75
2021/01/16 05:30:59;;;;;;;14.83;5.20;;;;;;;-4.11;57.20;100507.52;121748;1140;104432;-74
2021/01/16 05:33:30;;;;;;;17.33;6.47;;;;;;;-4.11;57.64;100503.31;121672;1141;104335;-74
2021/01/16 05:36:00;;;;;;;22.17;7.13;;;;;;;-4.06;57.36;100502.08;121601;1141;104405;-74
2021/01/16 05:38:35;;;;;;;27.23;7.30;;;;;;;-4.00;57.31;100507.78;121700;1141;104343;-75
2021/01/16 05:41:07;;;;;;;21.30;6.20;;;;;;;-4.01;57.21;100500.83;121666;1140;104343;-75
2021/01/16 05:43:37;;;;;;;16.37;5.37;;;;;;;-4.05;57.56;100508.09;121624;1141;104344;-75
2021/01/16 05:46:10;;;;;;;19.10;6.70;;;;;;;-4.08;57.10;100508.73;121622;1141;104338;-75
2021/01/16 05:48:39;;;;;;;17.00;6.53;;;;;;;-4.12;57.18;100506.62;121684;1141;104341;-75
2021/01/16 05:51:09;;;;;;;16.93;4.80;;;;;;;-4.12;57.09;100514.31;121716;1141;104370;-75
2021/01/16 05:53:40;;;;;;;16.50;6.03;;;;;;;-4.16;57.11;100513.14;121732;1140;104341;-74
2021/01/16 05:56:11;;;;;;;21.37;6.27;;;;;;;-4.17;57.23;100508.76;121715;1141;104449;-74
2021/01/16 05:58:47;;;;;;;17.27;5.87;;;;;;;-4.15;56.99;100516.59;121410;1141;104355;-75
2021/01/16 06:01:24;;;;;;;14.03;5.17;;;;;;;-4.17;57.68;100518.12;121693;1140;104223;-76
2021/01/16 06:03:55;;;;;;;13.07;4.87;;;;;;;-4.18;57.28;100519.75;121735;1141;104358;-75
2021/01/16 06:06:25;;;;;;;13.93;5.13;;;;;;;-4.14;57.65;100523.53;121727;1141;104364;-75
2021/01/16 06:08:57;;;;;;;15.97;5.60;;;;;;;-4.13;57.68;100522.75;121775;1141;104456;-76
2021/01/16 06:11:26;;;;;;;17.10;6.33;;;;;;;-4.13;57.29;100519.30;121740;1140;104329;-76
2021/01/16 06:14:01;;;;;;;17.90;5.90;;;;;;;-4.13;57.41;100522.75;121664;1141;104457;-74
2021/01/16 06:16:45;;;;;;;19.77;6.23;;;;;;;-4.06;57.75;100524.25;121753;1141;104365;-76
2021/01/16 06:19:18;;;;;;;16.45;6.53;;;;;;;-3.98;57.70;100523.30;121823;1141;104403;-76
2021/01/16 06:21:47;;;;;;;16.17;5.80;;;;;;;-3.83;58.18;100522.16;121766;1141;104330;-75
2021/01/16 06:24:19;;;;;;;19.67;6.67;;;;;;;-3.69;57.85;100523.45;121726;1141;104495;-74
2021/01/16 06:26:55;;;;;;;18.93;6.13;;;;;;;-3.59;57.68;100520.05;121710;1141;104380;-74
2021/01/16 06:29:29;;;;;;;20.30;6.90;;;;;;;-3.46;57.71;100522.07;121716;1141;104347;-75
2021/01/16 06:32:09;;;;;;;18.30;6.50;;;;;;;-3.35;57.37;100529.11;121712;1141;104563;-75
2021/01/16 06:34:41;;;;;;;22.47;7.87;;;;;;;-3.29;57.35;100531.31;121706;1140;104334;-74
2021/01/16 06:37:13;;;;;;;22.63;7.53;;;;;;;-3.19;57.28;100535.64;121732;1141;104444;-73
2021/01/16 06:39:44;;;;;;;21.63;7.53;;;;;;;-3.16;57.68;100534.23;121721;1141;104786;-73
2021/01/16 06:42:21;;;;;;;23.20;7.80;;;;;;;-3.10;58.23;100527.09;121758;1140;104348;-74
2021/01/16 06:45:03;;;;;;;22.27;7.83;;;;;;;-3.04;57.28;100530.97;121752;1141;104335;-73
2021/01/16 06:47:34;;;;;;;17.27;6.90;;;;;;;-3.02;57.44;100535.48;121741;1141;104341;-75
2021/01/16 06:50:06;;;;;;;19.37;6.73;;;;;;;-3.01;57.49;100544.97;121731;1141;104342;-74
2021/01/16 06:52:38;;;;;;;18.97;8.07;;;;;;;-2.96;57.56;100547.95;121651;1141;104339;-75
2021/01/16 06:55:08;;;;;;;18.67;6.57;;;;;;;-2.95;57.17;100544.63;121592;1141;104333;-76
2021/01/16 06:57:37;;;;;;;25.60;7.50;;;;;;;-2.97;56.97;100549.63;121654;1140;104374;-75
2021/01/16 07:00:09;;;;;;;24.17;8.67;;;;;;;-2.90;57.69;100544.30;121666;1141;104383;-75
2021/01/16 07:02:39;;;;;;;22.57;8.80;;;;;;;-2.85;57.70;100548.92;121451;1141;104355;-75
2021/01/16 07:05:18;;;;;;;24.30;8.50;;;;;;;-2.83;57.99;100549.98;121689;1141;104398;-76
2021/01/16 07:07:51;;;;;;;25.37;8.87;;;;;;;-2.80;57.36;100548.58;121681;1141;104355;-76
2021/01/16 07:10:22;;;;;;;19.67;6.47;;;;;;;-2.82;56.82;100554.33;121676;1141;104793;-76
2021/01/16 07:12:53;;;;;;;25.03;8.33;;;;;;;-2.86;57.57;100549.70;121600;1140;104338;-74
2021/01/16 07:15:23;;;;;;;33.75;7.90;;;;;;;-2.84;57.79;100556.76;121720;1141;104493;-74
2021/01/16 07:17:53;;;;;;;24.83;7.43;;;;;;;-2.79;57.07;100550.39;121596;1141;104961;-74
2021/01/16 07:20:24;;;;;;;17.47;6.30;;;;;;;-2.77;57.33;100553.98;121720;1141;104343;-74
2021/01/16 07:22:53;;;;;;;18.30;6.17;;;;;;;-2.68;57.76;100558.13;121580;1141;104466;-74
2021/01/16 07:25:23;;;;;;;16.07;6.07;;;;;;;-2.61;58.14;100551.11;121789;1141;104422;-75
2021/01/16 07:27:53;;;;;;;20.17;6.90;;;;;;;-2.55;57.96;100545.63;121703;1141;104481;-75
2021/01/16 07:30:26;;;;;;;18.50;6.50;;;;;;;-2.47;57.89;100551.44;121722;1141;104380;-75
2021/01/16 07:32:55;;;;;;;21.07;7.00;;;;;;;-2.39;57.12;100547.86;121696;1141;104339;-75
2021/01/16 07:35:25;;;;;;;20.90;7.53;;;;;;;-2.38;57.23;100557.39;121702;1140;104338;-75
2021/01/16 07:37:55;;;;;;;17.80;6.77;;;;;;;-2.35;58.21;100557.66;121702;1141;104387;-75
2021/01/16 07:40:27;;;;;;;18.33;6.70;;;;;;;-2.32;57.88;100554.43;121737;1141;104499;-75
2021/01/16 07:42:58;;;;;;;16.90;6.20;;;;;;;-2.27;57.97;100554.08;121707;1141;104334;-75
2021/01/16 07:45:29;;;;;;;25.87;7.63;;;;;;;-2.24;56.70;100558.59;121680;1141;104342;-75
2021/01/16 07:48:00;;;;;;;19.27;6.90;;;;;;;-2.14;57.45;100552.58;121725;1140;104348;-74
2021/01/16 07:50:31;;;;;;;22.40;7.50;;;;;;;-2.04;56.85;100552.59;121693;1140;104322;-75
2021/01/16 07:53:03;;;;;;;20.10;7.43;;;;;;;-1.95;56.87;100562.78;121667;1140;104465;-76
2021/01/16 07:55:45;;;;;;;21.47;8.13;;;;;;;-1.85;57.04;100555.09;121558;1141;104368;-75
2021/01/16 07:58:35;;;;;;;21.40;7.50;;;;;;;-1.77;57.55;100559.22;121636;1140;104373;-74
2021/01/16 08:01:17;;;;;;;20.00;7.23;;;;;;;-1.64;56.85;100559.50;121652;1140;104439;-76
2021/01/16 08:04:09;;;;;;;17.70;6.40;;;;;;;-1.55;57.68;100556.79;121603;1141;104342;-76
2021/01/16 08:06:56;;;;;;;22.97;7.40;;;;;;;-1.55;56.83;100551.64;121472;1141;105526;-75
2021/01/16 08:09:41;;;;;;;29.23;10.43;;;;;;;-1.45;56.93;100555.87;121595;1141;104339;-76
2021/01/16 08:12:14;;;;;;;29.40;9.07;;;;;;;-1.39;56.51;100555.51;121902;1140;104342;-77
2021/01/16 08:14:44;;;;;;;36.10;10.57;;;;;;;-1.36;57.34;100553.19;121659;1141;104367;-75
2021/01/16 08:17:16;;;;;;;28.37;10.00;;;;;;;-1.39;57.12;100552.94;121613;1140;104377;-76
2021/01/16 08:20:07;;;;;;;22.40;8.17;;;;;;;-1.37;57.46;100556.53;121518;1140;104404;-77
2021/01/16 08:22:41;;;;;;;26.70;9.37;;;;;;;-1.39;57.62;100553.83;121483;1141;104339;-77
2021/01/16 08:25:12;;;;;;;21.82;6.08;;;;;;;-1.37;57.16;100559.10;121615;1141;104782;-75
2021/01/16 08:27:47;;;;;;;21.87;7.63;;;;;;;-1.41;56.93;100552.80;121612;1141;104858;-75
2021/01/16 08:30:18;;;;;;;19.80;7.40;;;;;;;-1.38;56.63;100565.94;121554;1141;104408;-75
2021/01/16 08:33:00;;;;;;;16.83;6.27;;;;;;;-1.34;57.22;100565.43;121691;1140;104489;-75
2021/01/16 08:35:31;;;;;;;18.70;6.43;;;;;;;-1.32;56.75;100570.70;121573;1141;104413;-76
2021/01/16 08:38:24;;;;;;;14.40;4.90;;;;;;;-1.35;55.30;100570.45;121647;1141;104357;-76
2021/01/16 08:41:03;;;;;;;19.77;6.60;;;;;;;-1.49;56.05;100567.60;121511;1141;104452;-75
2021/01/16 08:43:35;;;;;;;20.57;6.97;;;;;;;-1.48;56.89;100566.84;121530;1141;104364;-75
2021/01/16 08:46:11;;;;;;;13.60;5.57;;;;;;;-1.51;56.80;100570.80;121884;1140;104447;-75
2021/01/16 08:48:57;;;;;;;16.30;6.07;;;;;;;-1.52;56.52;100569.91;121706;1141;104361;-75
2021/01/16 08:51:34;;;;;;;16.50;5.67;;;;;;;-1.50;56.24;100559.75;121530;1140;104337;-76
2021/01/16 08:54:18;;;;;;;20.07;6.10;;;;;;;-1.50;55.86;100547.77;121551;1140;104361;-75
2021/01/16 08:56:49;;;;;;;11.63;5.05;;;;;;;-1.44;56.89;100552.55;121209;1141;104345;-75
2021/01/16 08:59:30;;;;;;;14.40;5.67;;;;;;;-1.49;56.72;100552.16;121515;1141;104383;-76
2021/01/16 09:02:07;;;;;;;22.00;6.90;;;;;;;-1.41;56.90;100542.51;121445;1141;104566;-75
2021/01/16 09:04:39;;;;;;;16.70;4.97;;;;;;;-1.35;56.02;100540.45;122107;1141;103070;-75
2021/01/16 09:07:20;;;;;;;18.83;6.27;;;;;;;-1.32;56.30;100539.81;121592;1141;104464;-75
2021/01/16 09:10:00;;;;;;;14.50;6.20;;;;;;;-1.28;56.15;100544.42;121699;1141;104364;-74
2021/01/16 09:12:32;;;;;;;16.07;6.43;;;;;;;-1.22;56.35;100541.47;121661;1141;104364;-76
2021/01/16 09:15:22;;;;;;;14.07;4.60;;;;;;;-1.21;56.46;100546.75;121658;1141;104342;-74
2021/01/16 09:18:05;;;;;;;15.87;5.47;;;;;;;-1.29;55.38;100542.64;121679;1141;104349;-74
2021/01/16 09:20:36;;;;;;;18.10;6.37;;;;;;;-1.26;56.58;100532.60;121685;1141;104461;-74
2021/01/16 09:23:23;;;;;;;13.33;5.00;;;;;;;-1.19;56.35;100541.73;121727;1141;104342;-75
2021/01/16 09:25:55;;;;;;;15.57;5.10;;;;;;;-1.20;55.61;100524.47;121694;1141;104342;-74
2021/01/16 09:28:43;;;;;;;20.93;8.20;;;;;;;-1.24;56.37;100523.32;121714;1140;104341;-74
2021/01/16 09:31:23;;;;;;;18.17;6.53;;;;;;;-1.25;55.84;100525.77;121708;1141;104508;-75
2021/01/16 09:33:53;;;;;;;18.13;6.30;;;;;;;-1.35;55.94;100524.11;121694;1141;104353;-74
2021/01/16 09:36:37;;;;;;;16.83;5.97;;;;;;;-1.45;56.01;100518.20;121684;1141;104330;-77
2021/01/16 09:39:14;;;;;;;15.60;5.90;;;;;;;-1.47;56.00;100524.87;121738;1141;104474;-75
2021/01/16 09:41:44;;;;;;;16.43;6.10;;;;;;;-1.46;55.75;100526.68;121703;1141;104342;-74
2021/01/16 09:44:14;;;;;;;16.17;5.57;;;;;;;-1.45;55.28;100525.00;121635;1141;104337;-77
2021/01/16 09:46:44;;;;;;;17.37;5.83;;;;;;;-1.47;55.84;100526.55;121598;1141;104330;-75
2021/01/16 09:49:14;;;;;;;17.57;6.13;;;;;;;-1.55;55.47;100533.62;121591;1141;104381;-75
2021/01/16 09:51:43;;;;;;;18.33;6.60;;;;;;;-1.64;55.96;100532.84;121495;1141;104355;-75
2021/01/16 09:54:15;;;;;;;16.07;5.87;;;;;;;-1.66;55.72;100527.57;121574;1140;104451;-76
2021/01/16 09:56:47;;;;;;;20.53;7.00;;;;;;;-1.69;55.05;100529.89;121665;1141;104404;-76
2021/01/16 09:59:23;;;;;;;16.20;6.43;;;;;;;-1.72;55.01;100526.16;121590;1140;104364;-77
2021/01/16 10:02:07;;;;;;;21.03;7.77;;;;;;;-1.78;55.83;100533.36;121575;1141;104460;-75
2021/01/16 10:04:43;;;;;;;25.20;8.80;;;;;;;-1.74;55.99;100530.29;121721;1141;104351;-74
2021/01/16 10:07:14;;;;;;;21.93;8.27;;;;;;;-1.69;55.48;100532.45;121675;1141;104369;-74
2021/01/16 10:09:45;;;;;;;21.33;8.17;;;;;;;-1.70;56.22;100535.83;121691;1141;104352;-74
2021/01/16 10:12:40;;;;;;;23.23;9.30;;;;;;;-1.65;56.08;100534.53;121621;1141;104468;-75
2021/01/16 10:15:14;;;;;;;22.30;8.40;;;;;;;-1.60;55.75;100532.34;121579;1140;104342;-76
2021/01/16 10:17:46;;;;;;;29.33;8.90;;;;;;;-1.64;55.45;100535.42;121566;1141;104793;-76
2021/01/16 10:20:18;;;;;;;19.80;7.03;;;;;;;-1.70;55.71;100529.76;121576;1141;104342;-75
2021/01/16 10:22:52;;;;;;;28.13;10.47;;;;;;;-1.84;56.28;100536.30;121645;1141;104340;-76
2021/01/16 10:25:23;;;;;;;22.60;8.87;;;;;;;-1.98;55.34;100545.40;121518;1141;104457;-77
2021/01/16 10:27:53;;;;;;;23.87;9.20;;;;;;;-2.10;55.69;100528.91;121645;1141;104349;-76
2021/01/16 10:30:24;;;;;;;27.60;10.50;;;;;;;-2.15;55.40;100530.20;121654;1141;104429;-75
2021/01/16 10:32:54;;;;;;;26.10;9.20;;;;;;;-2.23;56.11;100520.17;121720;1141;104406;-76
2021/01/16 10:35:25;;;;;;;25.20;10.57;;;;;;;-2.27;55.33;100523.23;121758;1141;104369;-75
2021/01/16 10:37:57;;;;;;;27.17;11.07;;;;;;;-2.30;56.77;100528.11;121781;1141;104330;-75
2021/01/16 10:40:29;;;;;;;25.47;9.93;;;;;;;-2.39;55.93;100529.88;121786;1141;104435;-75
2021/01/16 10:43:00;;;;;;;25.10;10.20;;;;;;;-2.50;56.58;100528.04;121722;1141;104346;-74
2021/01/16 10:45:32;;;;;;;26.70;10.33;;;;;;;-2.53;55.75;100526.98;121712;1141;104442;-75
2021/01/16 10:48:18;;;;;;;25.87;10.03;;;;;;;-2.55;55.69;100522.50;121785;1141;104574;-75
2021/01/16 10:50:48;;;;;;;26.67;10.40;;;;;;;-2.57;56.13;100522.36;121743;1141;104452;-75
2021/01/16 10:53:18;;;;;;;25.97;10.20;;;;;;;-2.54;55.80;100525.20;121743;1141;104342;-75
2021/01/16 10:55:56;;;;;;;23.10;9.33;;;;;;;-2.55;56.20;100522.50;121755;1141;104337;-76
2021/01/16 10:58:28;;;;;;;24.13;9.47;;;;;;;-2.59;56.75;100530.69;121689;1140;104335;-75
2021/01/16 11:00:59;;;;;;;28.17;10.50;;;;;;;-2.62;56.46;100527.84;121722;1140;104338;-75
2021/01/16 11:03:30;;;;;;;29.17;10.53;;;;;;;-2.64;56.50;100522.58;121699;1141;105457;-75
2021/01/16 11:06:06;;;;;;;30.27;11.37;;;;;;;-2.57;56.00;100521.44;121730;1141;104407;-74
2021/01/16 11:08:39;;;;;;;24.77;10.10;;;;;;;-2.50;56.30;100512.63;121564;1141;104500;-77
2021/01/16 11:11:24;;;;;;;25.43;11.03;;;;;;;-2.54;56.11;100509.78;121621;1140;104764;-77
2021/01/16 11:13:54;;;;;;;28.23;11.53;;;;;;;-2.60;55.54;100522.09;121260;1141;104583;-76
2021/01/16 11:16:23;;;;;;;25.03;10.00;;;;;;;-2.57;55.46;100522.36;121497;1140;104383;-76
2021/01/16 11:18:53;;;;;;;22.43;8.27;;;;;;;-2.60;56.76;100529.80;121526;1141;104876;-77
2021/01/16 11:21:52;;;;;;;21.10;7.87;;;;;;;-2.80;55.98;100522.89;121479;1141;104510;-77
2021/01/16 11:24:45;;;;;;;23.23;9.40;;;;;;;-2.93;55.66;100528.61;121491;1141;104364;-76
2021/01/16 11:27:18;;;;;;;19.70;7.45;;;;;;;-2.98;55.49;100541.79;121595;1141;104436;-75